createdAt,value
2023-04-15T00:00:51.393Z,35.98
2023-04-15T00:01:55.269Z,35.88
2023-04-15T00:02:58.320Z,35.61
2023-04-15T00:04:03.793Z,35.60
2023-04-15T00:05:07.379Z,35.56
2023-04-15T00:06:11.158Z,35.45
2023-04-15T00:07:14.884Z,35.67
2023-04-15T00:08:18.762Z,35.76
2023-04-15T00:09:20.960Z,35.90
2023-04-15T00:10:24.663Z,35.58
2023-04-15T00:11:27.222Z,35.87
2023-04-15T00:12:31.031Z,35.82
2023-04-15T00:13:34.314Z,36.04
2023-04-15T00:14:38.291Z,35.73
2023-04-15T00:15:41.221Z,35.77
2023-04-15T00:16:45.048Z,35.77
2023-04-15T00:17:48.079Z,35.88
2023-04-15T00:18:52.049Z,35.49
2023-04-15T00:19:56.104Z,35.50
2023-04-15T00:20:59.806Z,35.73
2023-04-15T00:22:02.342Z,35.80
2023-04-15T00:23:05.903Z,35.90
2023-04-15T00:24:08.661Z,35.92
2023-04-15T00:25:12.250Z,35.63
2023-04-15T00:26:14.926Z,35.62
2023-04-15T00:27:18.474Z,35.98
2023-04-15T00:28:21.237Z,35.78
2023-04-15T00:29:24.989Z,36.21
2023-04-15T00:30:27.171Z,36.26
2023-04-15T00:31:31.633Z,36.17
2023-04-15T00:32:34.499Z,36.25
2023-04-15T00:33:38.141Z,36.16
2023-04-15T00:34:40.856Z,36.34
2023-04-15T00:35:45.954Z,36.40
2023-04-15T00:36:48.483Z,36.53
2023-04-15T00:37:52.727Z,36.70
2023-04-15T00:38:55.275Z,36.71
2023-04-15T00:39:58.975Z,36.63
2023-04-15T00:41:01.805Z,36.46
2023-04-15T00:42:06.521Z,35.91
2023-04-15T00:43:09.197Z,36.43
2023-04-15T00:44:12.851Z,35.99
2023-04-15T00:45:15.885Z,36.10
2023-04-15T00:46:22.193Z,36.33
2023-04-15T00:47:25.306Z,36.14
2023-04-15T00:48:30.089Z,36.02
2023-04-15T00:49:32.672Z,36.31
2023-04-15T00:50:36.472Z,36.34
2023-04-15T00:51:40.074Z,36.52
2023-04-15T00:52:43.959Z,36.60
2023-04-15T00:53:46.611Z,37.04
2023-04-15T00:54:51.432Z,36.71
2023-04-15T00:55:54.908Z,36.45
2023-04-15T00:56:59.095Z,36.36
2023-04-15T00:58:02.130Z,36.59
2023-04-15T00:59:06.454Z,36.74
2023-04-15T01:00:11.540Z,36.98
2023-04-15T01:01:15.341Z,36.57
2023-04-15T01:02:18.310Z,36.70
2023-04-15T01:03:22.282Z,36.04
2023-04-15T01:04:25.664Z,36.39
2023-04-15T01:05:30.482Z,36.46
2023-04-15T01:06:33.822Z,36.46
2023-04-15T01:07:38.853Z,36.36
2023-04-15T01:08:41.799Z,36.08
2023-04-15T01:09:45.901Z,36.14
2023-04-15T01:10:48.989Z,35.87
2023-04-15T01:11:52.675Z,36.19
2023-04-15T01:12:55.309Z,36.36
2023-04-15T01:14:00.716Z,36.42
2023-04-15T01:15:03.805Z,36.38
2023-04-15T01:16:08.934Z,36.60
2023-04-15T01:17:11.595Z,36.51
2023-04-15T01:18:16.018Z,36.38
2023-04-15T01:19:18.930Z,36.15
2023-04-15T01:20:23.756Z,36.36
2023-04-15T01:21:27.159Z,36.20
2023-04-15T01:22:30.955Z,35.99
2023-04-15T01:23:37.277Z,36.39
2023-04-15T01:24:40.900Z,36.33
2023-04-15T01:25:45.982Z,36.26
2023-04-15T01:26:50.815Z,36.43
2023-04-15T01:27:53.596Z,36.46
2023-04-15T01:28:57.833Z,36.63
2023-04-15T01:30:00.455Z,36.58
2023-04-15T01:31:09.105Z,36.36
2023-04-15T01:32:12.232Z,36.61
2023-04-15T01:33:34.213Z,36.67
2023-04-15T01:34:56.802Z,36.40
2023-04-15T01:36:18.971Z,36.51
2023-04-15T01:37:21.927Z,36.61
2023-04-15T01:38:25.784Z,36.54
2023-04-15T01:39:27.946Z,36.82
2023-04-15T01:40:31.560Z,36.80
2023-04-15T01:41:36.865Z,36.40
2023-04-15T01:42:41.869Z,36.80
2023-04-15T01:43:46.073Z,36.70
2023-04-15T01:44:51.323Z,36.80
2023-04-15T01:45:55.239Z,36.60
2023-04-15T01:47:00.269Z,36.84
2023-04-15T01:48:04.252Z,36.73
2023-04-15T01:49:08.673Z,36.69
2023-04-15T01:50:12.436Z,37.00
2023-04-15T01:51:17.504Z,36.76
2023-04-15T01:52:21.393Z,36.64
2023-04-15T01:53:26.024Z,36.77
2023-04-15T01:54:29.780Z,36.89
2023-04-15T01:55:35.121Z,36.77
2023-04-15T01:56:40.348Z,36.91
2023-04-15T02:14:13.024Z,36.01
2023-04-15T02:15:17.056Z,35.89
2023-04-15T02:16:22.190Z,36.06
2023-04-15T02:17:26.294Z,36.07
2023-04-15T02:18:31.271Z,36.18
2023-04-15T02:19:35.086Z,36.29
2023-04-15T02:20:40.296Z,36.09
2023-04-15T02:21:44.092Z,36.20
2023-04-15T02:22:49.193Z,35.95
2023-04-15T02:23:54.245Z,36.00
2023-04-15T02:24:59.195Z,36.25
2023-04-15T02:26:02.993Z,35.58
2023-04-15T02:27:07.906Z,35.99
2023-04-15T02:28:12.769Z,35.99
2023-04-15T02:29:18.101Z,35.60
2023-04-15T02:30:24.235Z,35.87
2023-04-15T02:31:28.267Z,35.77
2023-04-15T02:32:33.208Z,35.95
2023-04-15T02:33:38.008Z,35.30
2023-04-15T02:34:43.186Z,35.35
2023-04-15T02:35:47.628Z,35.66
2023-04-15T02:36:55.184Z,35.61
2023-04-15T02:37:58.985Z,35.74
2023-04-15T02:39:04.442Z,35.53
2023-04-15T02:40:10.560Z,35.50
2023-04-15T02:41:15.463Z,35.60
2023-04-15T02:42:19.320Z,35.69
2023-04-15T02:43:23.753Z,35.09
2023-04-15T02:44:29.288Z,35.33
2023-04-15T02:45:34.412Z,35.07
2023-04-15T02:46:38.452Z,34.59
2023-04-15T02:47:43.517Z,34.58
2023-04-15T02:48:47.325Z,34.65
2023-04-15T02:49:52.207Z,34.46
2023-04-15T02:51:11.985Z,34.56
2023-04-15T02:52:16.855Z,34.41
2023-04-15T02:53:20.987Z,34.70
2023-04-15T02:54:26.312Z,34.58
2023-04-15T02:55:30.205Z,34.54
2023-04-15T02:56:34.777Z,34.77
2023-04-15T02:57:39.466Z,34.67
2023-04-15T02:58:46.465Z,34.35
2023-04-15T02:59:51.683Z,34.49
2023-04-15T03:00:56.694Z,34.05
2023-04-15T03:02:01.463Z,34.03
2023-04-15T03:03:08.120Z,34.38
2023-04-15T03:04:12.038Z,34.31
2023-04-15T03:05:17.014Z,34.14
2023-04-15T03:06:20.885Z,34.26
2023-04-15T03:07:25.599Z,34.32
2023-04-15T03:08:29.507Z,34.03
2023-04-15T03:09:34.025Z,33.82
2023-04-15T03:10:37.808Z,33.79
2023-04-15T03:11:42.587Z,34.22
2023-04-15T03:12:46.452Z,34.08
2023-04-15T03:13:50.966Z,34.01
2023-04-15T03:14:56.537Z,33.92
2023-04-15T03:16:01.705Z,33.98
2023-04-15T03:17:05.555Z,33.45
2023-04-15T03:18:10.592Z,33.42
2023-04-15T03:19:14.452Z,33.31
2023-04-15T03:20:19.058Z,33.24
2023-04-15T03:21:24.123Z,33.61
2023-04-15T03:22:29.002Z,33.39
2023-04-15T03:23:33.110Z,33.45
2023-04-15T03:24:38.084Z,33.45
2023-04-15T03:25:42.251Z,33.41
2023-04-15T03:26:47.601Z,33.35
2023-04-15T03:27:51.463Z,33.43
2023-04-15T03:28:56.258Z,33.32
2023-04-15T03:30:01.475Z,33.21
2023-04-15T03:31:06.538Z,33.16
2023-04-15T03:32:10.314Z,32.91
2023-04-15T03:33:15.102Z,32.83
2023-04-15T03:34:19.044Z,32.83
2023-04-15T03:35:23.889Z,32.95
2023-04-15T03:36:31.579Z,33.10
2023-04-15T03:37:35.317Z,33.04
2023-04-15T03:38:40.255Z,33.02
2023-04-15T03:39:44.030Z,32.87
2023-04-15T03:40:48.974Z,32.79
2023-04-15T03:41:52.747Z,32.67
2023-04-15T03:42:57.632Z,32.59
2023-04-15T03:44:01.466Z,32.71
2023-04-15T03:45:08.249Z,32.75
2023-04-15T03:46:12.165Z,32.55
2023-04-15T03:47:17.283Z,32.36
2023-04-15T03:48:21.318Z,32.41
2023-04-15T03:49:26.261Z,32.73
2023-04-15T03:50:29.952Z,32.45
2023-04-15T03:51:35.028Z,32.50
2023-04-15T03:52:38.884Z,32.01
2023-04-15T03:53:43.834Z,31.85
2023-04-15T03:54:47.979Z,31.90
2023-04-15T03:55:52.776Z,31.84
2023-04-15T03:56:57.099Z,32.20
2023-04-15T03:58:01.992Z,31.83
2023-04-15T03:59:05.707Z,31.92
2023-04-15T04:00:12.738Z,31.97
2023-04-15T04:01:16.921Z,31.88
2023-04-15T04:02:21.913Z,32.16
2023-04-15T04:04:31.219Z,32.05
2023-04-15T04:05:39.146Z,31.98
2023-04-15T04:06:42.972Z,32.13
2023-04-15T04:07:47.634Z,31.98
2023-04-15T04:08:51.388Z,31.86
2023-04-15T04:09:56.356Z,32.17
2023-04-15T04:11:00.583Z,31.78
2023-04-15T04:12:05.531Z,31.89
2023-04-15T04:13:09.367Z,31.86
2023-04-15T04:14:14.004Z,31.81
2023-04-15T04:15:19.349Z,31.64
2023-04-15T04:16:24.433Z,31.47
2023-04-15T04:17:28.330Z,31.80
2023-04-15T04:18:33.468Z,31.52
2023-04-15T04:19:37.367Z,31.54
2023-04-15T04:20:42.065Z,31.35
2023-04-15T04:21:45.859Z,31.39
2023-04-15T04:22:50.390Z,31.41
2023-04-15T04:23:54.305Z,31.58
2023-04-15T04:24:59.785Z,31.24
2023-04-15T04:26:03.491Z,31.26
2023-04-15T04:27:08.626Z,31.01
2023-04-15T04:28:12.689Z,31.18
2023-04-15T04:29:17.502Z,31.34
2023-04-15T04:30:23.789Z,31.04
2023-04-15T04:31:27.751Z,31.30
2023-04-15T04:32:32.712Z,31.63
2023-04-15T04:33:36.567Z,31.37
2023-04-15T04:34:41.016Z,30.95
2023-04-15T04:35:44.825Z,31.16
2023-04-15T04:36:49.278Z,31.15
2023-04-15T04:37:54.015Z,31.15
2023-04-15T04:38:58.902Z,31.06
2023-04-15T04:40:02.703Z,31.57
2023-04-15T04:41:07.759Z,31.19
2023-04-15T04:42:11.850Z,30.74
2023-04-15T04:43:16.838Z,30.51
2023-04-15T04:44:20.533Z,30.54
2023-04-15T04:45:27.576Z,30.80
2023-04-15T04:46:31.423Z,31.02
2023-04-15T04:47:35.940Z,30.78
2023-04-15T04:48:40.866Z,30.96
2023-04-15T04:49:44.593Z,30.68
2023-04-15T04:50:49.629Z,30.56
2023-04-15T04:51:53.854Z,30.46
2023-04-15T04:52:58.803Z,30.01
2023-04-15T04:54:03.697Z,30.03
2023-04-15T04:55:09.874Z,30.09
2023-04-15T04:56:14.618Z,30.10
2023-04-15T04:57:18.474Z,30.26
2023-04-15T04:58:23.356Z,30.19
2023-04-15T04:59:27.186Z,30.39
2023-04-15T05:00:33.218Z,30.21
2023-04-15T05:01:37.441Z,30.03
2023-04-15T05:02:44.408Z,29.75
2023-04-15T05:03:48.329Z,29.99
2023-04-15T05:04:54.638Z,29.36
2023-04-15T05:05:58.447Z,29.53
2023-04-15T05:07:03.015Z,29.26
2023-04-15T05:08:07.340Z,29.19
2023-04-15T05:09:12.076Z,29.60
2023-04-15T05:10:17.792Z,29.15
2023-04-15T05:11:22.902Z,28.97
2023-04-15T05:12:26.882Z,28.31
2023-04-15T05:13:31.911Z,29.11
2023-04-15T05:14:35.945Z,27.95
2023-04-15T05:15:43.566Z,27.26
2023-04-15T05:16:47.411Z,26.76
2023-04-15T05:17:51.982Z,27.25
2023-04-15T05:18:55.839Z,27.01
2023-04-15T05:20:00.392Z,27.00
2023-04-15T05:21:04.248Z,26.64
2023-04-15T05:22:09.650Z,26.50
2023-04-15T05:23:14.464Z,26.58
2023-04-15T05:24:18.566Z,26.50
2023-04-15T05:25:23.609Z,26.55
2023-04-15T05:26:27.823Z,26.63
2023-04-15T05:27:32.650Z,26.86
2023-04-15T05:28:36.527Z,26.73
2023-04-15T05:29:41.253Z,26.72
2023-04-15T05:30:46.696Z,26.33
2023-04-15T05:31:51.583Z,26.01
2023-04-15T05:32:55.413Z,26.03
2023-04-15T05:33:59.845Z,26.03
2023-04-15T05:35:03.605Z,26.28
2023-04-15T05:36:08.448Z,25.93
2023-04-15T05:37:12.219Z,26.01
2023-04-15T05:38:16.720Z,25.85
2023-04-15T05:39:20.422Z,25.59
2023-04-15T05:40:25.172Z,25.81
2023-04-15T05:41:28.910Z,25.96
2023-04-15T05:42:33.465Z,26.15
2023-04-15T05:43:37.295Z,25.61
2023-04-15T05:44:41.907Z,25.41
2023-04-15T05:45:47.179Z,24.73
2023-04-15T05:46:52.260Z,24.68
2023-04-15T05:47:57.357Z,24.69
2023-04-15T05:49:01.626Z,24.47
2023-04-15T05:50:07.716Z,23.98
2023-04-15T05:51:11.724Z,23.99
2023-04-15T05:52:17.031Z,23.82
2023-04-15T05:53:21.124Z,23.80
2023-04-15T05:54:28.034Z,23.87
2023-04-15T05:55:32.275Z,24.20
2023-04-15T05:56:37.205Z,24.50
2023-04-15T05:57:42.098Z,24.48
2023-04-15T05:58:45.851Z,24.74
2023-04-15T05:59:51.853Z,24.70
2023-04-15T06:00:57.343Z,25.16
2023-04-15T06:02:02.260Z,25.25
2023-04-15T06:03:06.771Z,25.39
2023-04-15T06:04:11.958Z,25.04
2023-04-15T06:05:15.911Z,25.62
2023-04-15T06:06:20.644Z,24.61
2023-04-15T06:07:25.830Z,24.59
2023-04-15T06:08:29.903Z,24.41
2023-04-15T06:09:34.991Z,24.57
2023-04-15T06:10:38.862Z,24.51
2023-04-15T06:11:43.731Z,25.30
2023-04-15T06:12:48.665Z,25.34
2023-04-15T06:13:52.615Z,25.03
2023-04-15T06:14:58.946Z,24.44
2023-04-15T06:16:05.677Z,24.46
2023-04-15T06:17:10.981Z,24.59
2023-04-15T06:18:14.660Z,24.53
2023-04-15T06:19:20.060Z,24.53
2023-04-15T06:20:24.240Z,24.14
2023-04-15T06:21:29.062Z,24.12
2023-04-15T06:22:32.919Z,24.14
2023-04-15T06:23:38.016Z,23.94
2023-04-15T06:39:09.108Z,23.44
2023-04-15T06:40:13.522Z,23.45
2023-04-15T06:43:16.014Z,23.89
2023-04-15T06:44:19.965Z,24.51
2023-04-15T06:45:24.917Z,23.53
2023-04-15T06:46:29.125Z,23.29
2023-04-15T06:47:35.435Z,23.38
2023-04-15T06:48:39.288Z,23.11
2023-04-15T06:49:45.458Z,22.94
2023-04-15T06:50:51.109Z,23.18
2023-04-15T06:51:54.947Z,23.22
2023-04-15T06:52:59.630Z,23.08
2023-04-15T06:54:06.224Z,23.21
2023-04-15T06:55:11.836Z,22.93
2023-04-15T06:56:16.105Z,22.82
2023-04-15T06:57:20.926Z,22.45
2023-04-15T06:58:24.768Z,22.49
2023-04-15T06:59:29.695Z,22.32
2023-04-15T07:00:34.521Z,22.64
2023-04-15T07:01:39.362Z,22.55
2023-04-15T07:02:45.282Z,22.37
2023-04-15T07:03:50.449Z,22.65
2023-04-15T07:04:54.679Z,23.03
2023-04-15T07:06:00.171Z,22.41
2023-04-15T07:07:03.905Z,22.40
2023-04-15T07:08:08.758Z,22.57
2023-04-15T07:09:12.576Z,22.11
2023-04-15T07:10:17.368Z,21.90
2023-04-15T07:11:21.528Z,22.08
2023-04-15T07:12:26.463Z,21.60
2023-04-15T07:13:32.499Z,21.85
2023-04-15T07:14:38.048Z,21.91
2023-04-15T07:15:41.782Z,22.14
2023-04-15T07:16:46.713Z,22.23
2023-04-15T07:17:52.034Z,22.95
2023-04-15T07:18:57.462Z,22.96
2023-04-15T07:20:01.323Z,22.87
2023-04-15T07:21:06.660Z,22.69
2023-04-15T07:22:10.881Z,22.80
2023-04-15T07:23:16.557Z,22.93
2023-04-15T07:24:20.980Z,23.14
2023-04-15T07:25:26.031Z,22.35
2023-04-15T07:26:31.127Z,21.91
2023-04-15T07:27:35.029Z,22.27
2023-04-15T07:28:39.922Z,22.37
2023-04-15T07:29:43.638Z,22.17
2023-04-15T07:30:48.453Z,22.89
2023-04-15T07:31:52.160Z,22.67
2023-04-15T07:32:59.205Z,22.48
2023-04-15T07:34:03.065Z,22.22
2023-04-15T07:35:08.623Z,22.58
2023-04-15T07:36:13.497Z,22.45
2023-04-15T07:37:17.707Z,22.46
2023-04-15T07:38:22.750Z,22.50
2023-04-15T07:39:26.805Z,22.59
2023-04-15T07:40:31.785Z,22.81
2023-04-15T07:41:35.641Z,22.38
2023-04-15T07:42:41.366Z,22.34
2023-04-15T07:43:45.621Z,22.60
2023-04-15T07:44:50.751Z,22.95
2023-04-15T07:45:55.613Z,22.61
2023-04-15T07:47:04.770Z,21.73
2023-04-15T07:48:10.058Z,22.16
2023-04-15T07:49:15.275Z,22.53
2023-04-15T07:50:20.394Z,22.37
2023-04-15T07:51:24.352Z,22.50
2023-04-15T07:52:29.222Z,22.47
2023-04-15T07:53:33.526Z,22.60
2023-04-15T07:54:38.870Z,22.87
2023-04-15T07:55:43.823Z,22.48
2023-04-15T07:56:47.669Z,22.88
2023-04-15T07:57:52.514Z,22.19
2023-04-15T07:58:56.297Z,22.23
2023-04-15T08:00:01.293Z,22.66
2023-04-15T08:01:05.809Z,22.66
2023-04-15T08:02:12.469Z,22.46
2023-04-15T08:03:19.047Z,22.84
2023-04-15T08:04:23.295Z,22.41
2023-04-15T08:05:28.346Z,22.20
2023-04-15T08:06:32.205Z,21.68
2023-04-15T08:07:37.620Z,21.91
2023-04-15T08:08:41.848Z,21.88
2023-04-15T08:09:47.134Z,21.69
2023-04-15T08:10:52.678Z,21.95
2023-04-15T08:11:58.151Z,21.98
2023-04-15T08:13:01.892Z,22.35
2023-04-15T08:14:06.465Z,21.74
2023-04-15T08:15:13.340Z,21.62
2023-04-15T08:16:23.388Z,21.76
2023-04-15T08:17:27.416Z,21.75
2023-04-15T08:18:33.782Z,21.56
2023-04-15T08:19:38.719Z,21.49
2023-04-15T08:20:42.652Z,21.69
2023-04-15T08:21:47.773Z,21.85
2023-04-15T08:22:52.985Z,21.56
2023-04-15T08:23:57.969Z,21.84
2023-04-15T08:25:01.942Z,21.93
2023-04-15T08:26:07.077Z,21.65
2023-04-15T08:27:12.559Z,22.58
2023-04-15T08:28:17.574Z,23.35
2023-04-15T08:29:22.481Z,22.54
2023-04-15T08:30:27.279Z,22.22
2023-04-15T08:31:31.126Z,22.01
2023-04-15T08:32:36.483Z,22.45
2023-04-15T08:33:41.671Z,22.67
2023-04-15T08:34:46.620Z,22.57
2023-04-15T08:35:50.374Z,22.18
2023-04-15T08:36:54.948Z,21.95
2023-04-15T08:37:58.861Z,21.69
2023-04-15T08:39:05.263Z,21.44
2023-04-15T08:40:11.303Z,21.87
2023-04-15T08:41:22.840Z,21.79
2023-04-15T08:42:32.874Z,22.65
2023-04-15T08:43:39.154Z,21.82
2023-04-15T08:44:44.896Z,21.86
2023-04-15T08:45:51.953Z,21.46
2023-04-15T08:46:58.620Z,21.16
2023-04-15T08:48:05.607Z,20.58
2023-04-15T08:49:14.084Z,20.63
2023-04-15T08:50:19.243Z,21.24
2023-04-15T08:51:27.432Z,21.16
2023-04-15T08:52:32.470Z,21.22
2023-04-15T08:53:37.673Z,21.07
2023-04-15T08:54:42.443Z,21.48
2023-04-15T08:55:48.374Z,20.90
2023-04-15T08:56:54.755Z,20.48
2023-04-15T08:57:58.783Z,20.81
2023-04-15T08:59:04.181Z,21.09
2023-04-15T09:00:09.658Z,21.53
2023-04-15T09:01:15.552Z,21.47
2023-04-15T09:02:19.842Z,21.10
2023-04-15T09:03:25.218Z,21.89
2023-04-15T09:04:31.955Z,21.15
2023-04-15T09:05:36.859Z,21.30
2023-04-15T09:06:42.237Z,21.13
2023-04-15T09:07:47.125Z,21.21
2023-04-15T09:08:53.144Z,21.23
2023-04-15T09:09:57.070Z,21.15
2023-04-15T09:11:02.347Z,21.21
2023-04-15T09:12:06.407Z,21.57
2023-04-15T09:13:11.224Z,21.19
2023-04-15T09:14:16.108Z,20.72
2023-04-15T09:15:20.138Z,21.20
2023-04-15T09:16:25.192Z,20.85
2023-04-15T09:17:30.149Z,20.68
2023-04-15T09:18:36.603Z,21.66
2023-04-15T09:19:41.926Z,21.21
2023-04-15T09:20:46.975Z,21.25
2023-04-15T09:21:51.857Z,20.98
2023-04-15T09:22:56.635Z,21.26
2023-04-15T09:24:02.124Z,20.71
2023-04-15T09:25:28.056Z,20.95
2023-04-15T09:26:34.151Z,20.71
2023-04-15T09:27:39.131Z,20.61
2023-04-15T09:28:43.194Z,21.29
2023-04-15T09:29:51.984Z,20.47
2023-04-15T09:30:58.670Z,20.76
2023-04-15T09:32:14.965Z,21.68
2023-04-15T09:33:18.424Z,20.72
2023-04-15T09:34:23.526Z,20.36
2023-04-15T09:35:29.271Z,20.42
2023-04-15T09:36:53.132Z,20.96
2023-04-15T09:38:05.418Z,21.10
2023-04-15T09:39:10.454Z,21.36
2023-04-15T09:40:14.522Z,21.58
2023-04-15T09:41:20.109Z,21.21
2023-04-15T09:42:27.057Z,20.91
2023-04-15T09:43:42.408Z,21.13
2023-04-15T09:44:46.850Z,20.86
2023-04-15T09:45:53.230Z,20.59
2023-04-15T09:46:56.979Z,20.94
2023-04-15T09:48:02.480Z,21.20
2023-04-15T09:49:09.318Z,21.03
2023-04-15T09:50:15.230Z,21.01
2023-04-15T09:51:36.713Z,21.83
2023-04-15T09:52:43.413Z,21.14
2023-04-15T09:53:48.332Z,21.49
2023-04-15T09:54:55.166Z,21.21
2023-04-15T09:56:02.844Z,21.08
2023-04-15T09:57:07.546Z,20.70
2023-04-15T09:58:20.277Z,20.56
2023-04-15T09:59:25.423Z,20.53
2023-04-15T10:00:32.433Z,20.56
2023-04-15T10:01:36.995Z,20.85
2023-04-15T10:02:43.418Z,20.78
2023-04-15T10:03:48.930Z,20.66
2023-04-15T10:04:53.941Z,20.67
2023-04-15T10:06:01.475Z,20.66
2023-04-15T10:07:08.385Z,20.33
2023-04-15T10:08:14.139Z,20.23
2023-04-15T10:09:19.604Z,20.15
2023-04-15T10:10:23.321Z,20.31
2023-04-15T10:11:31.781Z,19.89
2023-04-15T10:12:40.029Z,19.80
2023-04-15T10:13:45.499Z,20.13
2023-04-15T10:14:58.233Z,19.82
2023-04-15T10:16:07.961Z,20.03
2023-04-15T10:17:14.063Z,19.43
2023-04-15T10:18:21.354Z,20.14
2023-04-15T10:19:32.591Z,19.46
2023-04-15T10:20:38.555Z,19.24
2023-04-15T10:21:42.813Z,19.29
2023-04-15T10:22:49.574Z,19.86
2023-04-15T10:23:54.108Z,19.51
2023-04-15T10:25:00.034Z,19.44
2023-04-15T10:26:06.507Z,19.63
2023-04-15T10:27:11.528Z,19.62
2023-04-15T10:28:17.754Z,19.38
2023-04-15T10:29:21.568Z,19.45
2023-04-15T10:30:26.811Z,19.90
2023-04-15T10:31:32.730Z,19.60
2023-04-15T10:32:38.010Z,19.39
2023-04-15T10:33:44.345Z,19.80
2023-04-15T10:34:49.809Z,20.50
2023-04-15T10:35:58.342Z,19.73
2023-04-15T10:37:04.078Z,19.28
2023-04-15T10:38:38.035Z,19.21
2023-04-15T10:39:45.102Z,19.70
2023-04-15T10:40:52.006Z,19.37
2023-04-15T10:42:07.621Z,19.83
2023-04-15T10:43:27.852Z,19.50
2023-04-15T10:44:31.644Z,19.72
2023-04-15T10:45:38.571Z,19.16
2023-04-15T10:46:43.979Z,19.38
2023-04-15T10:47:54.668Z,19.14
2023-04-15T10:48:59.531Z,18.59
2023-04-15T10:50:03.835Z,19.29
2023-04-15T10:51:09.567Z,19.35
2023-04-15T10:52:15.343Z,18.97
2023-04-15T10:53:29.646Z,18.83
2023-04-15T10:54:36.456Z,18.69
2023-04-15T10:55:41.428Z,19.09
2023-04-15T10:56:46.382Z,19.19
2023-04-15T10:57:55.101Z,18.33
2023-04-15T10:59:01.628Z,19.22
2023-04-15T11:00:15.087Z,19.02
2023-04-15T11:01:23.411Z,19.02
2023-04-15T11:02:41.837Z,18.83
2023-04-15T11:03:51.643Z,18.22
2023-04-15T11:04:57.688Z,18.71
2023-04-15T11:06:02.717Z,19.21
2023-04-15T11:07:07.394Z,19.09
2023-04-15T11:08:12.898Z,18.84
2023-04-15T11:09:33.078Z,19.33
2023-04-15T11:10:55.253Z,19.88
2023-04-15T11:12:10.673Z,19.91
2023-04-15T11:13:17.870Z,18.62
2023-04-15T11:14:22.802Z,18.70
2023-04-15T11:15:30.904Z,18.50
2023-04-15T11:16:45.297Z,18.17
2023-04-15T11:17:49.155Z,17.68
2023-04-15T11:18:57.727Z,18.29
2023-04-15T11:20:01.914Z,18.80
2023-04-15T11:21:08.624Z,18.05
2023-04-15T11:22:12.755Z,18.57
2023-04-15T11:23:18.936Z,18.67
2023-04-15T11:24:28.003Z,18.44
2023-04-15T11:25:33.381Z,18.65
2023-04-15T11:26:40.639Z,18.98
2023-04-15T11:27:44.528Z,18.35
2023-04-15T11:28:49.441Z,17.93
2023-04-15T11:29:53.480Z,18.21
2023-04-15T11:30:59.444Z,18.80
2023-04-15T11:32:08.597Z,18.44
2023-04-15T11:33:14.065Z,18.19
2023-04-15T11:34:24.867Z,18.48
2023-04-15T11:35:29.077Z,18.53
2023-04-15T11:36:33.927Z,18.28
2023-04-15T11:37:37.761Z,18.78
2023-04-15T11:38:45.493Z,18.57
2023-04-15T11:39:51.205Z,18.73
2023-04-15T11:40:56.508Z,18.84
2023-04-15T11:42:01.714Z,19.50
2023-04-15T11:43:07.986Z,19.30
2023-04-15T11:44:18.522Z,18.18
2023-04-15T11:45:22.245Z,18.02
2023-04-15T11:46:31.009Z,17.83
2023-04-15T11:47:36.348Z,18.16
2023-04-15T11:48:45.287Z,18.13
2023-04-15T11:49:49.017Z,18.10
2023-04-15T11:50:57.561Z,18.60
2023-04-15T11:52:01.501Z,18.11
2023-04-15T11:53:08.312Z,17.38
2023-04-15T11:54:21.428Z,17.66
2023-04-15T11:55:24.708Z,17.55
2023-04-15T11:56:28.759Z,17.15
2023-04-15T11:57:35.734Z,17.80
2023-04-15T11:58:40.899Z,17.00
2023-04-15T11:59:45.825Z,16.65
2023-04-15T12:00:52.643Z,17.12
2023-04-15T12:01:55.328Z,17.13
2023-04-15T12:03:14.182Z,16.97
2023-04-15T12:04:25.234Z,16.79
2023-04-15T12:05:28.973Z,16.85
2023-04-15T12:06:35.225Z,16.83
2023-04-15T12:07:59.028Z,16.48
2023-04-15T12:09:06.101Z,16.41
2023-04-15T12:10:09.869Z,16.75
2023-04-15T12:11:12.827Z,16.09
2023-04-15T12:12:16.491Z,16.63
2023-04-15T12:13:21.237Z,15.82
2023-04-15T12:14:28.634Z,16.00
2023-04-15T12:15:31.738Z,16.09
2023-04-15T12:16:49.214Z,16.22
2023-04-15T12:17:56.560Z,16.63
2023-04-15T12:19:04.797Z,16.84
2023-04-15T12:20:09.694Z,16.67
2023-04-15T12:21:12.568Z,17.04
2023-04-15T12:22:18.688Z,16.28
2023-04-15T12:23:21.267Z,16.04
2023-04-15T12:24:24.942Z,15.95
2023-04-15T12:25:35.537Z,16.33
2023-04-15T12:26:45.191Z,15.96
2023-04-15T12:27:53.828Z,16.02
2023-04-15T12:29:02.391Z,16.07
2023-04-15T12:30:08.231Z,16.17
2023-04-15T12:31:11.688Z,16.49
2023-04-15T12:32:16.500Z,16.38
2023-04-15T12:33:19.558Z,16.72
2023-04-15T12:34:29.604Z,16.11
2023-04-15T12:35:33.416Z,15.94
2023-04-15T12:36:37.391Z,16.23
2023-04-15T12:37:41.198Z,15.77
2023-04-15T12:38:44.137Z,15.97
2023-04-15T12:39:49.752Z,15.44
2023-04-15T12:40:52.645Z,16.07
2023-04-15T12:41:56.750Z,16.20
2023-04-15T12:42:59.420Z,15.31
2023-04-15T12:44:04.937Z,15.20
2023-04-15T12:45:08.434Z,15.42
2023-04-15T12:46:12.065Z,16.21
2023-04-15T12:47:16.059Z,16.12
2023-04-15T12:48:18.961Z,16.18
2023-04-15T12:49:23.137Z,16.23
2023-04-15T12:50:25.660Z,16.10
2023-04-15T12:51:32.135Z,16.30
2023-04-15T12:52:34.767Z,16.15
2023-04-15T12:53:38.770Z,16.09
2023-04-15T12:54:41.574Z,16.43
2023-04-15T12:55:45.569Z,16.26
2023-04-15T12:56:51.275Z,16.01
2023-04-15T12:57:54.138Z,16.64
2023-04-15T12:58:57.761Z,16.46
2023-04-15T13:00:01.692Z,17.38
2023-04-15T13:01:05.641Z,16.65
2023-04-15T13:02:09.132Z,16.56
2023-04-15T13:03:12.949Z,17.09
2023-04-15T13:04:19.565Z,16.51
2023-04-15T13:05:22.783Z,16.01
2023-04-15T13:06:26.434Z,15.68
2023-04-15T13:07:29.035Z,15.36
2023-04-15T13:08:32.746Z,15.92
2023-04-15T13:09:35.410Z,15.70
2023-04-15T13:10:39.564Z,15.91
2023-04-15T13:11:42.145Z,16.20
2023-04-15T13:12:47.218Z,16.20
2023-04-15T13:13:52.451Z,16.69
2023-04-15T13:14:56.202Z,17.00
2023-04-15T13:16:00.819Z,17.17
2023-04-15T13:17:09.065Z,17.82
2023-04-15T13:18:12.034Z,17.26
2023-04-15T13:19:16.061Z,17.35
2023-04-15T13:20:18.844Z,17.86
2023-04-15T13:21:22.849Z,17.75
2023-04-15T13:22:25.499Z,17.90
2023-04-15T13:23:29.275Z,18.17
2023-04-15T13:24:32.214Z,18.01
2023-04-15T13:25:35.974Z,18.61
2023-04-15T13:26:39.261Z,18.86
2023-04-15T13:27:42.862Z,19.49
2023-04-15T13:28:46.801Z,19.69
2023-04-15T13:29:50.374Z,18.85
2023-04-15T13:30:53.829Z,19.05
2023-04-15T13:31:59.287Z,19.47
2023-04-15T13:33:03.081Z,19.48
2023-04-15T13:34:05.336Z,19.67
2023-04-15T13:35:09.850Z,18.55
2023-04-15T13:36:12.640Z,18.96
2023-04-15T13:37:16.756Z,19.28
2023-04-15T13:38:19.753Z,19.55
2023-04-15T13:39:23.509Z,19.70
2023-04-15T13:40:26.071Z,19.68
2023-04-15T13:41:29.743Z,19.43
2023-04-15T13:42:32.604Z,19.25
2023-04-15T13:43:36.223Z,19.11
2023-04-15T13:44:38.890Z,19.35
2023-04-15T13:45:42.540Z,19.34
2023-04-15T13:46:46.438Z,19.80
2023-04-15T13:47:52.205Z,19.79
2023-04-15T13:48:55.241Z,20.25
2023-04-15T13:49:59.843Z,20.25
2023-04-15T13:51:03.665Z,20.42
2023-04-15T13:52:06.856Z,20.59
2023-04-15T13:53:10.765Z,20.09
2023-04-15T13:54:13.514Z,20.25
2023-04-15T13:55:20.254Z,19.69
2023-04-15T13:56:24.132Z,20.09
2023-04-15T13:57:28.075Z,20.16
2023-04-15T13:58:30.796Z,20.03
2023-04-15T13:59:35.167Z,19.76
2023-04-15T14:00:39.006Z,19.77
2023-04-15T14:01:41.685Z,19.83
2023-04-15T14:02:45.436Z,20.06
2023-04-15T14:03:51.268Z,20.25
2023-04-15T14:04:54.906Z,20.22
2023-04-15T14:05:58.934Z,20.27
2023-04-15T14:07:03.295Z,20.08
2023-04-15T14:08:08.497Z,20.65
2023-04-15T14:09:11.743Z,20.44
2023-04-15T14:10:15.454Z,20.56
2023-04-15T14:11:18.050Z,20.06
2023-04-15T14:12:21.887Z,20.43
2023-04-15T14:13:25.100Z,20.28
2023-04-15T14:14:27.823Z,20.21
2023-04-15T14:15:31.622Z,20.55
2023-04-15T14:16:33.841Z,20.43
2023-04-15T14:17:37.582Z,20.91
2023-04-15T14:18:40.764Z,20.68
2023-04-15T14:19:46.250Z,20.27
2023-04-15T14:20:48.895Z,20.61
2023-04-15T14:21:52.596Z,20.39
2023-04-15T14:22:56.290Z,20.50
2023-04-15T14:23:58.991Z,19.98
2023-04-15T14:25:03.131Z,20.10
2023-04-15T14:26:06.006Z,20.20
2023-04-15T14:27:11.401Z,20.25
2023-04-15T14:28:14.169Z,20.30
2023-04-15T14:29:18.219Z,20.52
2023-04-15T14:30:22.350Z,20.74
2023-04-15T14:31:25.058Z,20.97
2023-04-15T14:32:29.219Z,20.55
2023-04-15T14:33:32.313Z,21.11
2023-04-15T14:34:35.953Z,21.33